Time;durP1;ratioP1;P1;durP2;ratioP2;P2;SDS_P1;SDS_P2;PMS_P1;PMS_P2;Temp;Humidity;BMP_temperature;BMP_pressure;BME280_temperature;BME280_humidity;BME280_pressure;Samples;Min_cycle;Max_cycle;Signal;HPM_P1;HPM_P2
2023/08/09 00:01:03;;;;;;;6.57;4.40;;;;;;;14.75;100.00;100234.06;4973689;28;20404;-70
2023/08/09 00:03:31;;;;;;;6.93;4.40;;;;;;;14.66;100.00;100224.34;4973915;28;20205;-69
2023/08/09 00:05:57;;;;;;;7.13;4.73;;;;;;;14.60;100.00;100223.50;4973302;28;20261;-70
2023/08/09 00:08:24;;;;;;;7.60;4.70;;;;;;;14.55;100.00;100228.88;4970919;28;20244;-70
2023/08/09 00:10:50;;;;;;;5.50;4.23;;;;;;;14.55;100.00;100233.31;4956523;28;20228;-70
2023/08/09 00:13:16;;;;;;;6.37;4.57;;;;;;;14.54;100.00;100237.75;4973748;28;20206;-70
2023/08/09 00:15:43;;;;;;;6.07;4.00;;;;;;;14.53;100.00;100235.97;4953365;28;20221;-70
2023/08/09 00:18:10;;;;;;;5.33;4.00;;;;;;;14.51;100.00;100242.22;4964199;28;20210;-70
2023/08/09 00:20:36;;;;;;;5.90;3.83;;;;;;;14.50;100.00;100237.78;4973062;28;20228;-70
2023/08/09 00:23:03;;;;;;;5.70;3.93;;;;;;;14.48;100.00;100229.78;4973605;28;20674;-70
2023/08/09 00:25:30;;;;;;;4.83;3.47;;;;;;;14.46;100.00;100236.91;4973805;28;20241;-71
2023/08/09 00:27:57;;;;;;;6.33;3.70;;;;;;;14.45;100.00;100229.81;4970913;28;20228;-70
2023/08/09 00:30:24;;;;;;;6.37;4.37;;;;;;;14.45;100.00;100219.16;4972847;28;20299;-69
2023/08/09 00:32:51;;;;;;;5.93;4.13;;;;;;;14.43;100.00;100212.06;4973728;28;20583;-69
2023/08/09 00:35:17;;;;;;;6.43;4.00;;;;;;;14.47;100.00;100217.38;4973592;28;20697;-68
2023/08/09 00:37:44;;;;;;;5.53;3.73;;;;;;;14.44;100.00;100204.06;4969456;28;20205;-69
2023/08/09 00:40:13;;;;;;;4.67;3.83;;;;;;;14.51;100.00;100212.91;4970064;28;20721;-70
2023/08/09 00:42:41;;;;;;;4.77;3.87;;;;;;;14.54;100.00;100215.56;4973507;28;20202;-69
2023/08/09 00:45:09;;;;;;;5.30;3.80;;;;;;;14.54;100.00;100213.78;4973353;28;20206;-69
2023/08/09 00:47:35;;;;;;;7.33;4.10;;;;;;;14.52;100.00;100207.56;4970575;28;20208;-69
2023/08/09 00:50:03;;;;;;;5.10;4.00;;;;;;;14.53;100.00;100216.44;4969479;28;20629;-69
2023/08/09 00:52:30;;;;;;;6.67;4.43;;;;;;;14.58;100.00;100215.53;4972860;28;20209;-70
2023/08/09 00:54:57;;;;;;;5.90;4.07;;;;;;;14.59;100.00;100208.41;4973241;28;20209;-70
2023/08/09 00:57:23;;;;;;;5.87;4.03;;;;;;;14.61;100.00;100218.16;4972867;28;20201;-69
2023/08/09 00:59:50;;;;;;;6.90;3.93;;;;;;;14.60;100.00;100205.75;4965560;28;20213;-69
2023/08/09 01:02:16;;;;;;;5.10;4.13;;;;;;;14.59;100.00;100195.97;4972353;28;20673;-69
2023/08/09 01:04:43;;;;;;;5.67;4.47;;;;;;;14.63;100.00;100199.50;4973351;28;20214;-70
2023/08/09 01:07:30;;;;;;;6.00;3.83;;;;;;;14.63;100.00;100194.16;4955467;28;20213;-70
2023/08/09 01:10:15;;;;;;;4.97;3.87;;;;;;;14.65;100.00;100198.59;4969393;28;20292;-70
2023/08/09 01:12:49;;;;;;;5.47;4.10;;;;;;;14.69;100.00;100213.66;4965982;28;20752;-70
2023/08/09 01:15:19;;;;;;;7.20;4.73;;;;;;;14.67;100.00;100202.13;4955550;28;20236;-70
2023/08/09 01:17:49;;;;;;;6.80;4.77;;;;;;;14.74;100.00;100214.53;4969987;28;20241;-71
2023/08/09 01:20:17;;;;;;;8.67;5.17;;;;;;;14.75;100.00;100215.41;4966623;28;20706;-71
2023/08/09 01:22:56;;;;;;;7.43;4.70;;;;;;;14.67;100.00;100217.25;4972246;28;20210;-71
2023/08/09 01:25:22;;;;;;;5.97;4.80;;;;;;;14.65;100.00;100219.03;4955140;28;20221;-70
2023/08/09 01:27:49;;;;;;;6.40;5.13;;;;;;;14.63;100.00;100207.50;4961465;28;20257;-70
2023/08/09 01:30:15;;;;;;;5.10;4.60;;;;;;;14.62;100.00;100219.06;4961424;28;20317;-71
2023/08/09 01:32:42;;;;;;;7.93;4.70;;;;;;;14.63;100.00;100218.16;4966459;28;20202;-70
2023/08/09 01:35:09;;;;;;;6.13;4.47;;;;;;;14.61;100.00;100210.16;4967711;28;20217;-68
2023/08/09 01:37:42;;;;;;;7.40;4.30;;;;;;;14.57;100.00;100204.88;4954243;28;20749;-71
2023/08/09 01:40:11;;;;;;;8.37;5.03;;;;;;;14.65;100.00;100208.38;4962052;28;20244;-70
2023/08/09 01:42:39;;;;;;;8.13;5.43;;;;;;;14.76;100.00;100201.19;4972071;28;20666;-70
2023/08/09 01:45:08;;;;;;;7.93;5.47;;;;;;;14.89;100.00;100212.66;4968219;28;20224;-70
2023/08/09 01:47:35;;;;;;;8.93;5.20;;;;;;;14.83;100.00;100207.38;4964457;28;20213;-70
2023/08/09 01:50:01;;;;;;;6.83;4.73;;;;;;;14.87;100.00;100201.13;4969896;28;20289;-70
2023/08/09 01:52:28;;;;;;;7.37;5.63;;;;;;;14.88;100.00;100206.47;4969666;28;21969;-71
2023/08/09 01:54:54;;;;;;;9.37;5.57;;;;;;;14.96;100.00;100209.94;4972412;28;20558;-70
2023/08/09 01:57:20;;;;;;;7.03;6.30;;;;;;;14.97;100.00;100216.16;4972133;28;20213;-69
2023/08/09 01:59:47;;;;;;;8.00;5.90;;;;;;;14.99;100.00;100225.91;4954248;28;20256;-69
2023/08/09 02:02:13;;;;;;;11.37;6.43;;;;;;;14.95;100.00;100213.50;4969749;28;20225;-70
2023/08/09 02:04:40;;;;;;;9.63;7.00;;;;;;;14.89;100.00;100216.22;4971790;28;20234;-71
2023/08/09 02:07:06;;;;;;;7.93;5.60;;;;;;;14.81;100.00;100215.41;4971886;28;20576;-71
2023/08/09 02:09:33;;;;;;;10.40;6.37;;;;;;;14.78;100.00;100214.50;4970247;28;20217;-71
2023/08/09 02:11:59;;;;;;;9.43;6.00;;;;;;;14.80;100.00;100212.72;4965753;28;20293;-70
2023/08/09 02:14:26;;;;;;;9.13;6.60;;;;;;;14.73;100.00;100198.53;4974920;28;20212;-71
2023/08/09 02:16:52;;;;;;;10.03;7.10;;;;;;;14.65;100.00;100211.03;4976091;28;20210;-70
2023/08/09 02:19:19;;;;;;;8.57;5.90;;;;;;;14.63;100.00;100210.16;4978388;28;20212;-71
2023/08/09 02:21:46;;;;;;;8.30;6.47;;;;;;;14.63;100.00;100212.81;4969092;28;20240;-70
2023/08/09 02:24:12;;;;;;;9.27;6.70;;;;;;;14.60;100.00;100208.41;4972988;28;20205;-70
2023/08/09 02:26:39;;;;;;;8.73;6.87;;;;;;;14.61;100.00;100211.94;4971651;28;20209;-71
2023/08/09 02:29:06;;;;;;;10.63;6.67;;;;;;;14.60;100.00;100205.75;4971293;28;20728;-69
2023/08/09 02:31:32;;;;;;;9.60;6.30;;;;;;;14.62;100.00;100209.28;4969282;28;20248;-70
2023/08/09 02:33:58;;;;;;;9.40;6.70;;;;;;;14.60;100.00;100207.53;4968730;28;20686;-70
2023/08/09 02:36:25;;;;;;;10.40;7.47;;;;;;;14.71;100.00;100201.22;4971244;28;20256;-70
2023/08/09 02:38:51;;;;;;;8.80;6.43;;;;;;;14.71;100.00;100201.22;4971286;28;20206;-69
2023/08/09 02:41:19;;;;;;;9.57;6.50;;;;;;;14.67;100.00;100193.25;4967340;28;20268;-71
2023/08/09 02:43:45;;;;;;;9.03;6.90;;;;;;;14.68;100.00;100197.69;4969058;28;20202;-71
2023/08/09 02:46:12;;;;;;;10.27;6.50;;;;;;;14.63;100.00;100192.38;4970946;28;20213;-70
2023/08/09 02:48:39;;;;;;;8.90;6.77;;;;;;;14.65;100.00;100195.94;4971080;28;20221;-69
2023/08/09 02:51:06;;;;;;;11.90;6.80;;;;;;;14.64;100.00;100186.16;4969043;28;20792;-70
2023/08/09 02:53:36;;;;;;;9.20;6.97;;;;;;;14.57;100.00;100173.78;4951624;28;20244;-70
2023/08/09 02:56:03;;;;;;;10.83;7.83;;;;;;;14.69;100.00;100175.47;4971050;28;20202;-70
2023/08/09 02:58:30;;;;;;;12.40;7.70;;;;;;;14.63;100.00;100175.50;4970729;28;20197;-70
2023/08/09 03:00:56;;;;;;;11.90;7.77;;;;;;;14.55;100.00;100178.22;4970487;28;20236;-70
2023/08/09 03:03:23;;;;;;;11.13;7.70;;;;;;;14.62;100.00;100184.41;4962296;28;20729;-70
2023/08/09 03:05:49;;;;;;;10.87;7.37;;;;;;;14.63;100.00;100192.38;4970872;28;20205;-70
2023/08/09 03:08:15;;;;;;;10.10;7.20;;;;;;;14.64;100.00;100194.16;4970677;28;20205;-70
2023/08/09 03:10:42;;;;;;;9.43;6.40;;;;;;;14.59;100.00;100200.41;4970784;28;20221;-70
2023/08/09 03:13:08;;;;;;;9.87;6.80;;;;;;;14.60;100.00;100186.19;4969065;28;20209;-70
2023/08/09 03:15:35;;;;;;;9.30;6.83;;;;;;;14.60;100.00;100192.41;4968886;28;20678;-70
2023/08/09 03:18:01;;;;;;;9.73;6.13;;;;;;;14.61;100.00;100191.50;4971102;28;20264;-70
2023/08/09 03:20:29;;;;;;;11.70;7.10;;;;;;;14.62;100.00;100195.94;4970780;28;20231;-70
2023/08/09 03:22:58;;;;;;;11.13;7.20;;;;;;;14.62;100.00;100195.94;4967143;28;20216;-70
2023/08/09 03:25:24;;;;;;;8.40;7.00;;;;;;;14.58;100.00;100190.66;4968929;28;20212;-70
2023/08/09 03:27:51;;;;;;;10.57;7.47;;;;;;;14.52;100.00;100194.25;4970708;28;20201;-69
2023/08/09 03:30:17;;;;;;;13.90;7.93;;;;;;;14.50;100.00;100203.13;4969989;28;20699;-70
2023/08/09 03:32:44;;;;;;;12.50;7.40;;;;;;;14.47;100.00;100209.38;4968389;28;20596;-70
2023/08/09 03:35:10;;;;;;;12.30;8.27;;;;;;;14.52;100.00;100206.69;4965490;28;20210;-70
2023/08/09 03:37:37;;;;;;;10.87;7.63;;;;;;;14.53;100.00;100211.13;4970455;28;20618;-70
2023/08/09 03:40:06;;;;;;;13.23;7.93;;;;;;;14.52;100.00;100209.34;4970158;28;20581;-70
2023/08/09 03:42:33;;;;;;;12.10;7.23;;;;;;;14.55;100.00;100206.66;4970035;28;20289;-70
2023/08/09 03:44:59;;;;;;;8.97;6.97;;;;;;;14.54;100.00;100204.91;4960266;28;20705;-67
2023/08/09 03:47:26;;;;;;;8.77;7.23;;;;;;;14.50;100.00;100196.03;4969651;28;20209;-70
2023/08/09 03:49:52;;;;;;;11.67;7.80;;;;;;;14.49;100.00;100186.28;4970319;28;20225;-70
2023/08/09 03:52:19;;;;;;;11.33;7.43;;;;;;;14.47;100.00;100198.72;4969822;28;20722;-70
2023/08/09 03:54:45;;;;;;;8.90;7.20;;;;;;;14.38;100.00;100198.72;4968165;28;20694;-70
2023/08/09 03:57:12;;;;;;;8.70;7.40;;;;;;;14.34;100.00;100194.28;4969076;28;20645;-70
2023/08/09 03:59:38;;;;;;;9.37;7.23;;;;;;;14.31;100.00;100195.19;4964800;28;20198;-70
2023/08/09 04:02:05;;;;;;;11.93;8.10;;;;;;;14.35;100.00;100194.28;4970706;23;20325;-74
2023/08/09 04:04:31;;;;;;;12.07;8.17;;;;;;;14.34;100.00;100197.84;4950808;28;20230;-74
2023/08/09 04:06:58;;;;;;;12.50;7.70;;;;;;;14.35;100.00;100202.28;4950756;28;20216;-75
2023/08/09 04:09:26;;;;;;;11.37;8.20;;;;;;;14.32;100.00;100199.63;4954244;28;20257;-74
2023/08/09 04:11:53;;;;;;;12.27;7.57;;;;;;;14.34;100.00;100204.94;4937637;29;20317;-76
2023/08/09 04:14:20;;;;;;;11.03;7.67;;;;;;;14.37;100.00;100202.25;4954221;28;20238;-75
2023/08/09 04:16:46;;;;;;;9.23;7.07;;;;;;;14.34;100.00;100202.28;4944975;28;20460;-74
2023/08/09 04:19:13;;;;;;;9.70;6.87;;;;;;;14.34;100.00;100215.59;4953923;28;20198;-75
2023/08/09 04:21:39;;;;;;;8.27;6.37;;;;;;;14.34;100.00;100221.81;4946690;28;20258;-75
2023/08/09 04:24:06;;;;;;;13.50;6.97;;;;;;;14.35;100.00;100223.59;4954198;28;20206;-74
2023/08/09 04:26:33;;;;;;;9.67;6.73;;;;;;;14.36;100.00;100229.81;4953148;28;20206;-75
2023/08/09 04:28:59;;;;;;;10.53;7.40;;;;;;;14.47;100.00;100228.03;4947405;28;20226;-75
2023/08/09 04:31:26;;;;;;;10.97;7.17;;;;;;;14.59;100.00;100233.28;4954108;28;20313;-75
2023/08/09 04:33:52;;;;;;;8.67;6.60;;;;;;;14.56;100.00;100238.63;4937098;29;20202;-75
2023/08/09 04:36:19;;;;;;;10.10;6.70;;;;;;;14.58;100.00;100236.84;4936821;28;20213;-75
2023/08/09 04:38:46;;;;;;;9.27;6.87;;;;;;;14.61;100.00;100244.81;4953205;28;20213;-74
2023/08/09 04:41:13;;;;;;;8.77;6.37;;;;;;;14.62;100.00;100243.03;4954406;28;20236;-74
2023/08/09 04:43:42;;;;;;;11.10;7.10;;;;;;;14.67;100.00;100247.44;4946212;28;20203;-74
2023/08/09 04:46:10;;;;;;;8.97;6.60;;;;;;;14.72;100.00;100239.41;4937058;29;20297;-75
2023/08/09 04:48:38;;;;;;;10.30;7.17;;;;;;;14.79;100.00;100234.94;4948800;28;20555;-75
2023/08/09 04:51:05;;;;;;;11.90;7.13;;;;;;;14.84;100.00;100223.38;4953550;28;20316;-75
2023/08/09 04:53:31;;;;;;;10.77;6.33;;;;;;;14.91;100.00;100224.22;4953446;28;20206;-74
2023/08/09 04:55:58;;;;;;;8.03;5.90;;;;;;;14.94;100.00;100224.19;4951044;28;20206;-75
2023/08/09 04:58:25;;;;;;;8.53;5.87;;;;;;;14.99;100.00;100225.91;4949866;28;20559;-74
2023/08/09 05:00:51;;;;;;;8.40;6.23;;;;;;;15.05;100.00;100228.53;4935993;29;20232;-75
2023/08/09 05:03:17;;;;;;;12.10;5.97;;;;;;;15.13;100.00;100228.47;4953129;28;20653;-74
2023/08/09 05:05:44;;;;;;;8.37;5.83;;;;;;;15.15;100.00;100231.13;4953510;28;20523;-75
2023/08/09 05:08:10;;;;;;;8.93;5.07;;;;;;;15.20;100.00;100224.84;4952385;28;20702;-74
2023/08/09 05:10:37;;;;;;;6.57;4.83;;;;;;;15.28;100.00;100224.81;4951318;28;20230;-74
2023/08/09 05:13:03;;;;;;;7.93;4.87;;;;;;;15.36;100.00;100225.63;4953777;28;20211;-74
2023/08/09 05:15:30;;;;;;;7.37;4.37;;;;;;;15.46;100.00;100238.00;4953477;28;20284;-74
2023/08/09 05:17:56;;;;;;;6.57;4.60;;;;;;;15.52;100.00;100245.94;4951465;28;20301;-73
2023/08/09 05:20:23;;;;;;;6.70;4.13;;;;;;;15.52;100.00;100251.28;4934136;28;20671;-73
2023/08/09 05:22:50;;;;;;;7.00;4.07;;;;;;;15.61;100.00;100253.03;4953116;28;20595;-73
2023/08/09 05:25:17;;;;;;;7.07;4.90;;;;;;;15.68;100.00;100249.41;4953097;28;20208;-73
2023/08/09 05:27:48;;;;;;;8.63;4.87;;;;;;;15.72;100.00;100256.47;4935606;29;20840;-73
2023/08/09 05:30:15;;;;;;;8.47;4.90;;;;;;;15.88;100.00;100259.88;4951434;28;20301;-73
2023/08/09 05:32:41;;;;;;;7.20;3.90;;;;;;;15.91;100.00;100257.16;4953000;28;20289;-73
2023/08/09 05:35:08;;;;;;;7.50;4.43;;;;;;;15.95;100.00;100264.25;4953257;28;20289;-73
2023/08/09 05:37:37;;;;;;;6.60;3.67;;;;;;;15.98;100.00;100264.19;4952988;28;20266;-73
2023/08/09 05:40:12;;;;;;;8.03;3.93;;;;;;;16.01;100.00;100257.94;4945770;28;20677;-73
2023/08/09 05:42:39;;;;;;;6.90;3.87;;;;;;;16.09;100.00;100266.78;4950584;28;20288;-73
2023/08/09 05:45:06;;;;;;;8.50;4.70;;;;;;;16.16;100.00;100271.16;4953150;28;20206;-73
2023/08/09 05:47:32;;;;;;;6.17;4.07;;;;;;;16.20;100.00;100264.88;4935344;28;20284;-72
2023/08/09 05:49:59;;;;;;;7.10;4.10;;;;;;;16.26;100.00;100265.69;4952596;28;20745;-72
2023/08/09 05:52:26;;;;;;;8.20;4.00;;;;;;;16.32;100.00;100279.88;4948383;28;20234;-73
2023/08/09 05:54:52;;;;;;;6.93;3.83;;;;;;;16.33;100.00;100277.16;4935694;29;20217;-73
2023/08/09 05:57:19;;;;;;;6.10;3.93;;;;;;;16.43;100.00;100275.31;4936011;28;20241;-73
2023/08/09 05:59:45;;;;;;;5.23;3.80;;;;;;;16.41;100.00;100274.41;4952965;28;20209;-73
2023/08/09 06:02:11;;;;;;;10.23;4.53;;;;;;;16.45;100.00;100273.50;4945363;28;20277;-73
2023/08/09 06:04:38;;;;;;;7.57;3.50;;;;;;;16.53;100.00;100276.94;4951175;28;20209;-73
2023/08/09 06:07:04;;;;;;;4.33;3.50;;;;;;;16.56;100.00;100274.22;4952952;28;20290;-73
2023/08/09 06:09:31;;;;;;;7.60;4.13;;;;;;;16.60;100.00;100281.31;4952221;28;20221;-73
2023/08/09 06:11:57;;;;;;;5.47;3.60;;;;;;;16.63;100.00;100285.72;4935774;29;20305;-73
2023/08/09 06:14:24;;;;;;;5.07;3.40;;;;;;;16.66;100.00;100283.03;4933073;28;20662;-73
2023/08/09 06:16:50;;;;;;;5.43;3.90;;;;;;;16.72;100.00;100282.97;4951882;28;20228;-72
2023/08/09 06:19:17;;;;;;;9.70;3.80;;;;;;;16.72;100.00;100288.31;4935099;28;20209;-72
2023/08/09 06:21:43;;;;;;;5.63;3.53;;;;;;;16.72;100.00;100297.22;4952862;28;20320;-72
2023/08/09 06:24:10;;;;;;;4.40;3.40;;;;;;;16.71;100.00;100302.59;4948537;28;20312;-72
2023/08/09 06:26:36;;;;;;;7.60;3.60;;;;;;;16.70;100.00;100304.38;4935235;28;20206;-72
2023/08/09 06:29:03;;;;;;;4.00;3.30;;;;;;;16.68;100.00;100302.63;4952316;28;20217;-72
2023/08/09 06:31:29;;;;;;;5.30;3.30;;;;;;;16.69;100.00;100302.59;4949412;28;20242;-73
2023/08/09 06:33:55;;;;;;;5.87;3.67;;;;;;;16.72;100.00;100309.69;4950133;28;20210;-72
2023/08/09 06:36:22;;;;;;;4.93;4.00;;;;;;;16.75;100.00;100313.22;4952116;28;20210;-72
2023/08/09 06:38:48;;;;;;;4.53;3.70;;;;;;;16.78;100.00;100313.19;4952047;28;20211;-72
2023/08/09 06:41:15;;;;;;;10.73;4.20;;;;;;;16.78;100.00;100321.19;4935224;29;20297;-72
2023/08/09 06:43:41;;;;;;;6.47;3.43;;;;;;;16.75;100.00;100315.91;4934279;28;20204;-72
2023/08/09 06:46:10;;;;;;;4.97;3.63;;;;;;;16.80;100.00;100323.84;4950292;28;20328;-72
2023/08/09 06:48:36;;;;;;;6.17;3.10;;;;;;;16.83;100.00;100326.53;4934674;28;20297;-71
2023/08/09 06:51:03;;;;;;;5.20;3.17;;;;;;;16.89;100.00;100323.75;4951862;28;20241;-72
2023/08/09 06:53:29;;;;;;;6.77;3.43;;;;;;;16.94;100.00;100321.91;4934197;28;20210;-72
2023/08/09 06:55:55;;;;;;;5.77;3.27;;;;;;;17.00;100.00;100323.59;4947990;28;20206;-72
2023/08/09 06:58:22;;;;;;;4.17;3.00;;;;;;;17.07;100.00;100328.84;4951561;28;20597;-71
2023/08/09 07:00:48;;;;;;;6.27;3.90;;;;;;;17.22;100.00;100334.00;4951464;28;20238;-72
2023/08/09 07:03:15;;;;;;;4.47;2.87;;;;;;;17.29;100.00;100328.56;4951573;28;20210;-72
2023/08/09 07:05:43;;;;;;;4.70;3.50;;;;;;;17.43;100.00;100326.53;4947282;28;20208;-72
2023/08/09 07:08:12;;;;;;;3.93;2.77;;;;;;;17.54;100.00;100340.63;4951760;28;20294;-72
2023/08/09 07:10:38;;;;;;;4.77;3.10;;;;;;;17.66;100.00;100339.56;4951579;28;20338;-72
2023/08/09 07:13:05;;;;;;;6.40;3.20;;;;;;;17.74;100.00;100338.56;4951988;28;20462;-72
2023/08/09 07:15:32;;;;;;;3.83;3.17;;;;;;;17.91;100.00;100340.94;4946342;28;20233;-71
2023/08/09 07:17:59;;;;;;;4.83;2.90;;;;;;;18.14;100.00;100338.75;4951377;28;20454;-72
2023/08/09 07:20:26;;;;;;;3.58;3.00;;;;;;;18.19;100.00;100341.34;4950884;28;20198;-72
2023/08/09 07:22:52;;;;;;;5.43;3.17;;;;;;;18.20;100.00;100347.59;4934422;29;20212;-72
2023/08/09 07:25:19;;;;;;;6.10;3.40;;;;;;;18.21;100.00;100346.69;4931477;28;20210;-72
2023/08/09 07:27:47;;;;;;;7.47;3.30;;;;;;;18.19;100.00;100359.22;4947562;28;20202;-72
2023/08/09 07:30:16;;;;;;;5.77;2.60;;;;;;;18.14;100.00;100367.34;4954639;28;20522;-72
2023/08/09 07:32:43;;;;;;;6.13;3.40;;;;;;;17.99;100.00;100365.81;4954402;28;20286;-72
2023/08/09 07:35:11;;;;;;;5.10;3.50;;;;;;;17.99;100.00;100364.91;4948908;28;20210;-72
2023/08/09 07:37:43;;;;;;;4.97;3.37;;;;;;;18.05;100.00;100370.19;4953313;28;20683;-72
2023/08/09 07:40:13;;;;;;;4.80;3.53;;;;;;;18.23;100.00;100369.88;4954961;28;20210;-72
2023/08/09 07:42:41;;;;;;;5.07;3.40;;;;;;;18.21;100.00;100368.13;4954931;28;20664;-72
2023/08/09 07:45:09;;;;;;;5.00;3.17;;;;;;;18.26;100.00;100377.84;4950154;28;20751;-72
2023/08/09 07:47:36;;;;;;;6.07;3.67;;;;;;;18.26;100.00;100380.53;4951597;28;20270;-72
2023/08/09 07:50:02;;;;;;;4.80;3.23;;;;;;;18.27;100.00;100384.09;4954678;28;20310;-72
2023/08/09 07:52:29;;;;;;;6.47;3.30;;;;;;;18.39;100.00;100391.91;4954452;28;20466;-72
2023/08/09 07:54:56;;;;;;;4.93;3.40;;;;;;;18.52;100.00;100389.91;4955061;28;20261;-72
2023/08/09 07:57:23;;;;;;;5.43;3.50;;;;;;;18.68;100.00;100392.28;4948704;28;20210;-72
2023/08/09 07:59:50;;;;;;;3.95;3.28;;;;;;;18.85;100.00;100400.00;4954576;28;20293;-72
2023/08/09 08:02:18;;;;;;;4.20;3.00;;;;;;;18.99;100.00;100407.75;4954570;28;20236;-72
2023/08/09 08:04:47;;;;;;;4.20;2.70;;;;;;;19.01;100.00;100408.63;4946832;28;20210;-72
2023/08/09 08:07:14;;;;;;;5.17;2.80;;;;;;;19.24;100.00;100422.44;4950435;28;20209;-72
2023/08/09 08:09:45;;;;;;;3.10;2.20;;;;;;;19.57;100.00;100422.63;4952390;28;20225;-72
2023/08/09 08:12:11;;;;;;;4.13;2.50;;;;;;;19.70;100.00;100421.44;4954370;28;20232;-72
2023/08/09 08:14:59;;;;;;;8.75;2.83;;;;;;;19.22;100.00;100424.28;4948652;28;20206;-72
2023/08/09 08:17:26;;;;;;;4.32;2.70;;;;;;;18.98;100.00;100432.84;4954049;28;20302;-72
2023/08/09 08:19:53;;;;;;;3.87;2.80;;;;;;;18.98;100.00;100435.53;4946798;28;20214;-72
2023/08/09 08:22:25;;;;;;;4.97;2.97;;;;;;;18.82;100.00;100431.38;4954092;28;20244;-73
2023/08/09 08:24:52;;;;;;;4.07;3.08;;;;;;;18.59;100.00;100435.34;4954527;28;20210;-73
2023/08/09 08:27:18;;;;;;;3.23;1.90;;;;;;;18.12;100.00;100441.56;4954384;28;20214;-75
2023/08/09 08:29:44;;;;;;;3.03;1.90;;;;;;;17.72;100.00;100444.84;4944922;28;20230;-74
2023/08/09 08:32:11;;;;;;;4.50;1.70;;;;;;;17.43;100.00;100441.66;4949608;28;20230;-74
2023/08/09 08:34:37;;;;;;;4.80;1.60;;;;;;;17.77;100.00;100450.13;4953985;28;20206;-74
2023/08/09 08:37:06;;;;;;;1.50;1.07;;;;;;;17.94;100.00;100460.59;4953878;28;20214;-74
2023/08/09 08:39:36;;;;;;;1.20;1.10;;;;;;;18.15;100.00;100457.56;4950149;28;20221;-74
2023/08/09 08:42:03;;;;;;;2.40;1.10;;;;;;;18.28;100.00;100461.81;4951556;28;20316;-74
2023/08/09 08:44:31;;;;;;;0.83;0.80;;;;;;;18.28;100.00;100464.50;4936916;28;20217;-74
2023/08/09 08:46:58;;;;;;;1.20;0.80;;;;;;;18.52;100.00;100451.59;4954272;28;20214;-74
2023/08/09 08:49:25;;;;;;;0.60;0.60;;;;;;;18.81;100.00;100456.41;4951556;28;20219;-74
2023/08/09 08:51:54;;;;;;;1.10;0.70;;;;;;;19.37;100.00;100466.03;4951410;28;20584;-74
2023/08/09 08:54:23;;;;;;;0.70;0.70;;;;;;;20.00;100.00;100471.78;4953561;28;20202;-73
2023/08/09 08:56:49;;;;;;;0.70;0.60;;;;;;;20.49;100.00;100472.41;4946726;28;20285;-73
2023/08/09 08:59:16;;;;;;;1.65;0.80;;;;;;;20.57;100.00;100478.47;4953623;28;20648;-73
2023/08/09 09:01:42;;;;;;;2.75;0.70;;;;;;;21.00;100.00;100466.56;4949905;28;20233;-73
2023/08/09 09:04:09;;;;;;;1.95;0.80;;;;;;;21.30;100.00;100464.81;4953448;28;20205;-73
2023/08/09 09:06:36;;;;;;;2.15;0.80;;;;;;;21.54;100.00;100464.97;4953463;28;20206;-73
2023/08/09 09:09:14;;;;;;;1.75;0.80;;;;;;;21.89;100.00;100480.03;4953379;28;20675;-73
2023/08/09 09:11:44;;;;;;;1.30;0.82;;;;;;;22.35;100.00;100486.69;4945325;28;20232;-73
2023/08/09 09:14:13;;;;;;;1.20;0.80;;;;;;;22.73;100.00;100498.00;4950598;28;20230;-73
2023/08/09 09:16:42;;;;;;;1.17;0.68;;;;;;;23.03;100.00;100493.38;4936090;28;20239;-73
2023/08/09 09:19:10;;;;;;;0.90;0.70;;;;;;;23.38;100.00;100489.38;4953308;28;20214;-73
2023/08/09 09:21:38;;;;;;;0.52;0.52;;;;;;;23.45;100.00;100483.66;4953234;28;20270;-72
2023/08/09 09:24:07;;;;;;;0.60;0.50;;;;;;;23.56;100.00;100483.28;4946322;28;20297;-73
2023/08/09 09:26:37;;;;;;;0.60;0.50;;;;;;;23.62;100.00;100484.91;4953063;28;20643;-72
2023/08/09 09:29:08;;;;;;;0.40;0.40;;;;;;;23.58;100.00;100488.63;4953008;28;20241;-72
2023/08/09 09:31:39;;;;;;;0.57;0.57;;;;;;;23.57;100.00;100486.84;4952667;28;20226;-72
2023/08/09 09:34:09;;;;;;;0.63;0.50;;;;;;;23.30;100.00;100480.66;4948967;28;20202;-72
2023/08/09 09:36:39;;;;;;;0.47;0.47;;;;;;;23.32;100.00;100481.50;4953043;28;20277;-72
2023/08/09 09:39:10;;;;;;;3.13;0.40;;;;;;;23.16;100.00;100493.78;4952922;28;20285;-72
2023/08/09 09:41:38;;;;;;;1.45;0.40;;;;;;;23.06;100.00;100488.72;4952543;28;20222;-72
2023/08/09 09:44:04;;;;;;;1.05;0.57;;;;;;;22.92;100.00;100493.75;4932899;29;20682;-72
2023/08/09 09:46:31;;;;;;;2.17;0.43;;;;;;;22.90;100.00;100490.22;4952803;28;20213;-71
2023/08/09 09:49:05;;;;;;;0.50;0.40;;;;;;;22.60;100.00;100488.56;4953012;28;20221;-72
2023/08/09 09:51:33;;;;;;;1.00;0.52;;;;;;;22.43;100.00;100486.44;4951723;28;20359;-71
2023/08/09 09:53:59;;;;;;;0.75;0.70;;;;;;;22.30;100.00;100494.03;4945599;28;20216;-72
2023/08/09 09:56:26;;;;;;;1.15;0.50;;;;;;;22.37;100.00;100490.22;4949688;28;20241;-71
2023/08/09 09:58:53;;;;;;;0.50;0.50;;;;;;;21.98;100.00;100494.16;4952416;28;20396;-71
2023/08/09 10:01:22;;;;;;;0.50;0.50;;;;;;;21.81;100.00;100494.72;4953126;28;20236;-71
2023/08/09 10:03:59;;;;;;;0.70;0.50;;;;;;;21.89;100.00;100496.22;4949513;28;20206;-71
2023/08/09 10:06:29;;;;;;;0.57;0.55;;;;;;;21.97;100.00;100500.50;4948778;28;20635;-71
2023/08/09 10:08:58;;;;;;;0.70;0.70;;;;;;;21.89;100.00;100496.22;4952292;28;20202;-71
2023/08/09 10:11:28;;;;;;;0.50;0.50;;;;;;;21.96;100.00;100496.03;4951922;28;20264;-71
2023/08/09 10:13:56;;;;;;;0.73;0.60;;;;;;;21.98;100.00;100497.75;4937193;28;20287;-71
2023/08/09 10:16:25;;;;;;;0.60;0.60;;;;;;;21.94;100.00;100493.38;4950102;28;20658;-71
2023/08/09 10:18:57;;;;;;;0.60;0.60;;;;;;;21.88;100.00;100496.28;4935161;29;20199;-71
2023/08/09 10:21:24;;;;;;;2.13;0.70;;;;;;;21.65;100.00;100513.19;4952030;28;20713;-71
2023/08/09 10:23:54;;;;;;;0.57;0.57;;;;;;;21.63;100.00;100514.16;4948813;28;20301;-71
2023/08/09 10:26:30;;;;;;;1.08;0.70;;;;;;;21.60;100.00;100515.09;4932899;29;20208;-70
2023/08/09 10:29:08;;;;;;;0.73;0.70;;;;;;;21.62;100.00;100518.66;4951790;28;20205;-71
2023/08/09 10:31:48;;;;;;;0.93;0.75;;;;;;;21.68;100.00;100510.38;4934919;28;20229;-71
2023/08/09 10:34:16;;;;;;;0.80;0.70;;;;;;;21.87;100.00;100510.69;4948955;28;20206;-71
2023/08/09 10:36:48;;;;;;;0.68;0.65;;;;;;;22.37;100.00;100513.59;4949530;28;20198;-71
2023/08/09 10:39:16;;;;;;;1.75;0.60;;;;;;;22.83;100.00;100512.13;4951757;28;20670;-71
2023/08/09 10:42:14;;;;;;;0.80;0.80;;;;;;;23.35;100.00;100503.00;4951698;28;20214;-71
2023/08/09 10:44:45;;;;;;;0.68;0.68;;;;;;;23.73;96.90;100505.16;4930634;28;20590;-71
2023/08/09 10:47:22;;;;;;;0.55;0.50;;;;;;;24.07;71.25;100509.25;4947996;28;20210;-70
2023/08/09 10:49:48;;;;;;;0.50;0.50;;;;;;;24.73;68.92;100506.50;4951728;28;20273;-71
2023/08/09 10:52:17;;;;;;;2.08;0.73;;;;;;;24.97;67.71;100500.91;4951511;28;20222;-71
2023/08/09 10:54:49;;;;;;;0.75;0.70;;;;;;;25.53;66.94;100497.50;4945868;28;20225;-71
2023/08/09 10:57:16;;;;;;;1.13;0.73;;;;;;;25.90;65.14;100502.09;4950281;28;20213;-71
2023/08/09 10:59:43;;;;;;;0.70;0.60;;;;;;;25.57;61.15;100500.94;4951135;28;20569;-71
2023/08/09 11:02:10;;;;;;;1.13;0.70;;;;;;;24.82;63.39;100507.03;4951200;28;20643;-71
2023/08/09 11:04:36;;;;;;;1.85;0.60;;;;;;;24.98;63.41;100512.69;4950753;28;20249;-71
2023/08/09 11:07:03;;;;;;;1.08;0.60;;;;;;;24.98;63.35;100515.38;4943605;28;20205;-71
2023/08/09 11:09:30;;;;;;;0.50;0.50;;;;;;;25.05;63.83;100522.28;4948454;28;20576;-70
2023/08/09 11:11:56;;;;;;;0.90;0.80;;;;;;;24.94;65.60;100513.72;4951467;28;20276;-71
2023/08/09 11:14:23;;;;;;;1.67;0.88;;;;;;;25.44;65.04;100521.44;4951530;28;20230;-70
2023/08/09 11:16:51;;;;;;;1.83;0.80;;;;;;;25.71;59.41;100522.03;4949525;28;20217;-70
2023/08/09 11:19:27;;;;;;;0.93;0.68;;;;;;;25.89;59.83;100527.47;4948922;28;20286;-70